createdAt,value
2018-04-29T00:02:56.411Z,17.36
2018-04-29T00:05:58.907Z,17.37
2018-04-29T00:09:01.435Z,17.47
2018-04-29T00:12:03.970Z,17.23
2018-04-29T00:15:06.532Z,17.28
2018-04-29T00:18:09.042Z,17.15
2018-04-29T00:21:11.544Z,17.17
2018-04-29T00:24:14.067Z,16.43
2018-04-29T00:27:16.569Z,16.43
2018-04-29T00:30:19.078Z,16.46
2018-04-29T00:33:21.643Z,16.63
2018-04-29T00:36:24.174Z,16.79
2018-04-29T00:39:26.678Z,16.77
2018-04-29T00:42:29.233Z,17.12
2018-04-29T00:45:31.735Z,16.99
2018-04-29T00:48:34.256Z,16.97
2018-04-29T00:51:48.479Z,16.79
2018-04-29T00:54:51.000Z,16.98
2018-04-29T00:57:53.545Z,16.80
2018-04-29T01:00:56.052Z,16.77
2018-04-29T01:03:58.595Z,16.78
2018-04-29T01:07:01.137Z,16.73
2018-04-29T01:10:03.646Z,16.60
2018-04-29T01:13:06.195Z,16.71
2018-04-29T01:16:08.720Z,16.67
2018-04-29T01:19:11.251Z,16.44
2018-04-29T01:22:13.736Z,16.39
2018-04-29T01:25:16.312Z,16.37
2018-04-29T01:28:18.827Z,16.28
2018-04-29T01:31:21.328Z,16.31
2018-04-29T01:34:23.900Z,16.13
2018-04-29T01:37:26.391Z,16.02
2018-04-29T01:40:28.920Z,16.09
2018-04-29T01:43:31.428Z,15.97
2018-04-29T01:46:33.898Z,16.07
2018-04-29T01:49:36.441Z,16.15
2018-04-29T01:52:38.943Z,15.95
2018-04-29T01:55:41.483Z,16.10
2018-04-29T01:58:43.990Z,16.02
2018-04-29T02:01:46.496Z,16.15
2018-04-29T02:04:49.055Z,16.24
2018-04-29T02:07:51.537Z,16.08
2018-04-29T02:10:54.041Z,16.14
2018-04-29T02:13:56.571Z,16.16
2018-04-29T02:16:59.064Z,15.98
2018-04-29T02:20:01.549Z,16.04
2018-04-29T02:23:04.079Z,15.98
2018-04-29T02:26:06.622Z,16.07
2018-04-29T02:29:09.103Z,16.03
2018-04-29T02:32:11.596Z,15.99
2018-04-29T02:35:14.145Z,15.93
2018-04-29T02:38:16.664Z,15.96
2018-04-29T02:41:19.167Z,15.94
2018-04-29T02:44:21.683Z,15.80
2018-04-29T02:47:24.185Z,16.01
2018-04-29T02:50:26.676Z,15.98
2018-04-29T02:53:29.174Z,16.01
2018-04-29T02:56:31.673Z,15.96
2018-04-29T02:59:34.402Z,15.85
2018-04-29T03:02:36.918Z,15.92
2018-04-29T03:05:39.502Z,15.96
2018-04-29T03:08:42.079Z,16.10
2018-04-29T03:11:44.582Z,15.99
2018-04-29T03:14:47.072Z,15.90
2018-04-29T03:17:49.556Z,15.84
2018-04-29T03:20:52.078Z,15.78
2018-04-29T03:23:54.687Z,15.72
2018-04-29T03:26:57.184Z,15.57
2018-04-29T03:29:59.683Z,15.82
2018-04-29T03:33:02.180Z,15.64
2018-04-29T03:36:04.728Z,15.67
2018-04-29T03:39:07.271Z,15.57
2018-04-29T03:42:09.789Z,15.36
2018-04-29T03:45:12.293Z,15.51
2018-04-29T03:48:14.835Z,15.35
2018-04-29T03:51:17.327Z,15.54
2018-04-29T03:54:19.823Z,15.39
2018-04-29T03:57:34.015Z,15.25
2018-04-29T04:00:51.171Z,15.19
2018-04-29T04:03:58.310Z,15.12
2018-04-29T04:07:00.844Z,15.30
2018-04-29T04:10:03.362Z,15.12
2018-04-29T04:13:05.852Z,15.35
2018-04-29T04:16:08.336Z,15.27
2018-04-29T04:19:10.822Z,15.10
2018-04-29T04:22:13.317Z,15.24
2018-04-29T04:25:15.795Z,15.03
2018-04-29T04:28:18.331Z,15.06
2018-04-29T04:31:21.069Z,15.00
2018-04-29T04:34:23.583Z,15.16
2018-04-29T04:37:26.183Z,15.01
2018-04-29T04:40:28.669Z,15.11
2018-04-29T04:43:31.181Z,15.28
2018-04-29T04:46:33.705Z,15.35
2018-04-29T04:49:36.212Z,15.34
2018-04-29T04:52:38.715Z,15.20
2018-04-29T04:55:41.236Z,15.27
2018-04-29T04:58:43.804Z,15.38
2018-04-29T05:01:46.303Z,15.47
2018-04-29T05:04:48.836Z,15.37
2018-04-29T05:07:51.359Z,15.38
2018-04-29T05:10:53.905Z,15.50
2018-04-29T05:13:56.443Z,15.21
2018-04-29T05:17:00.160Z,15.19
2018-04-29T05:20:02.664Z,15.08
2018-04-29T05:23:05.181Z,15.12
2018-04-29T05:26:07.746Z,15.28
2018-04-29T05:29:10.222Z,15.32
2018-04-29T05:32:12.718Z,15.25
2018-04-29T05:35:15.218Z,15.22
2018-04-29T05:38:17.739Z,15.29
2018-04-29T05:41:20.230Z,15.39
2018-04-29T05:44:22.712Z,15.37
2018-04-29T05:47:25.208Z,15.48
2018-04-29T05:50:27.734Z,15.51
2018-04-29T05:53:30.309Z,15.53
2018-04-29T05:56:32.791Z,15.72
2018-04-29T05:59:35.293Z,15.72
2018-04-29T06:02:37.789Z,15.76
2018-04-29T06:05:40.279Z,15.90
2018-04-29T06:08:42.815Z,15.96
2018-04-29T06:11:46.124Z,16.08
2018-04-29T06:14:48.647Z,16.15
2018-04-29T06:17:51.169Z,16.28
2018-04-29T06:20:53.660Z,16.37
2018-04-29T06:23:56.211Z,16.53
2018-04-29T06:26:58.798Z,16.65
2018-04-29T06:30:01.319Z,16.65
2018-04-29T06:33:03.863Z,16.83
2018-04-29T06:36:06.352Z,16.94
2018-04-29T06:39:08.913Z,17.04
2018-04-29T06:42:11.419Z,17.09
2018-04-29T06:45:13.944Z,17.13
2018-04-29T06:48:16.469Z,17.29
2018-04-29T06:51:20.369Z,17.33
2018-04-29T06:54:22.958Z,17.37
2018-04-29T06:57:25.524Z,17.56
2018-04-29T07:00:28.106Z,17.68
2018-04-29T07:03:30.701Z,17.69
2018-04-29T07:06:33.286Z,17.81
2018-04-29T07:09:35.791Z,17.79
2018-04-29T07:12:38.324Z,17.85
2018-04-29T07:15:40.902Z,17.83
2018-04-29T07:18:44.418Z,17.88
2018-04-29T07:21:47.135Z,17.94
2018-04-29T07:24:49.728Z,17.92
2018-04-29T07:27:52.252Z,17.96
2018-04-29T07:30:54.781Z,18.07
2018-04-29T07:33:57.381Z,18.12
2018-04-29T07:36:59.922Z,18.13
2018-04-29T07:40:02.522Z,18.43
2018-04-29T07:43:05.137Z,18.74
2018-04-29T07:46:07.647Z,18.90
2018-04-29T07:49:10.193Z,19.13
2018-04-29T07:52:14.414Z,19.42
2018-04-29T07:55:17.567Z,19.58
2018-04-29T07:58:20.140Z,19.82
2018-04-29T08:01:22.742Z,19.96
2018-04-29T08:04:25.331Z,19.99
2018-04-29T08:07:27.911Z,20.15
2018-04-29T08:10:30.748Z,20.39
2018-04-29T08:13:33.274Z,20.77
2018-04-29T08:16:35.788Z,20.72
2018-04-29T08:19:38.373Z,20.82
2018-04-29T08:22:40.980Z,20.95
2018-04-29T08:25:43.620Z,21.17
2018-04-29T08:28:46.203Z,21.19
2018-04-29T08:31:48.825Z,21.27
2018-04-29T08:34:51.431Z,21.23
2018-04-29T08:37:54.015Z,20.88
2018-04-29T08:40:56.626Z,21.32
2018-04-29T08:43:59.395Z,21.48
2018-04-29T08:47:02.804Z,21.14
2018-04-29T08:50:05.595Z,20.91
2018-04-29T08:53:08.177Z,20.92
2018-04-29T08:56:10.758Z,20.98
2018-04-29T08:59:13.439Z,20.69
2018-04-29T09:02:16.288Z,20.77
2018-04-29T09:05:18.928Z,21.12
2018-04-29T09:08:21.609Z,21.33
2018-04-29T09:11:24.225Z,21.79
2018-04-29T09:14:27.378Z,21.92
2018-04-29T09:17:30.680Z,22.28
2018-04-29T09:20:33.331Z,22.83
2018-04-29T09:23:35.916Z,23.18
2018-04-29T09:26:38.588Z,23.12
2018-04-29T09:29:41.198Z,23.11
2018-04-29T09:32:43.773Z,23.15
2018-04-29T09:35:46.768Z,23.73
2018-04-29T09:38:49.305Z,23.59
2018-04-29T09:41:51.916Z,23.95
2018-04-29T09:44:54.541Z,24.02
2018-04-29T09:47:57.862Z,23.95
2018-04-29T09:51:00.722Z,24.48
2018-04-29T09:54:03.376Z,24.49
2018-04-29T09:57:07.697Z,25.04
2018-04-29T10:00:10.271Z,25.14
2018-04-29T10:03:12.917Z,25.69
2018-04-29T10:06:15.549Z,25.56
2018-04-29T10:09:18.146Z,26.01
2018-04-29T10:12:21.371Z,25.77
2018-04-29T10:15:24.781Z,25.78
2018-04-29T10:18:27.326Z,26.01
2018-04-29T10:21:29.900Z,26.30
2018-04-29T10:24:32.607Z,26.18
2018-04-29T10:27:35.785Z,26.33
2018-04-29T10:30:38.399Z,26.19
2018-04-29T10:33:40.980Z,26.07
2018-04-29T10:36:43.531Z,26.42
2018-04-29T10:39:46.067Z,26.17
2018-04-29T10:42:49.677Z,26.43
2018-04-29T10:45:52.247Z,26.17
2018-04-29T10:48:54.804Z,26.53
2018-04-29T10:51:57.380Z,26.91
2018-04-29T10:55:00.106Z,26.64
2018-04-29T10:58:02.678Z,26.71
2018-04-29T11:01:05.383Z,26.84
2018-04-29T11:04:07.929Z,26.95
2018-04-29T11:07:11.324Z,27.51
2018-04-29T11:10:13.932Z,27.30
2018-04-29T11:13:16.594Z,27.20
2018-04-29T11:16:19.271Z,26.98
2018-04-29T11:19:21.886Z,27.20
2018-04-29T11:22:24.478Z,27.40
2018-04-29T11:25:27.079Z,27.09
2018-04-29T11:28:29.779Z,27.25
2018-04-29T11:31:32.389Z,27.47
2018-04-29T11:34:34.930Z,27.80
2018-04-29T11:37:37.497Z,27.35
2018-04-29T11:40:40.175Z,27.14
2018-04-29T11:43:43.514Z,27.38
2018-04-29T11:46:46.052Z,27.44
2018-04-29T11:49:48.598Z,27.54
2018-04-29T11:52:51.134Z,27.57
2018-04-29T11:55:53.907Z,27.50
2018-04-29T11:58:56.487Z,27.74
2018-04-29T12:01:59.251Z,28.02
2018-04-29T12:05:01.765Z,27.99
2018-04-29T12:08:04.623Z,27.82
2018-04-29T12:11:07.601Z,27.99
2018-04-29T12:14:10.187Z,27.88
2018-04-29T12:17:12.724Z,28.38
2018-04-29T12:20:15.295Z,28.10
2018-04-29T12:23:17.862Z,28.23
2018-04-29T12:26:20.467Z,28.29
2018-04-29T12:29:23.094Z,28.94
2018-04-29T12:32:25.756Z,28.93
2018-04-29T12:35:28.367Z,28.82
2018-04-29T12:38:31.477Z,28.43
2018-04-29T12:41:34.991Z,28.29
2018-04-29T12:44:37.560Z,28.65
2018-04-29T12:47:40.121Z,29.25
2018-04-29T12:50:42.717Z,28.74
2018-04-29T12:53:45.300Z,28.56
2018-04-29T12:56:47.885Z,28.17
2018-04-29T12:59:50.493Z,28.34
2018-04-29T13:02:53.093Z,28.24
2018-04-29T13:05:55.777Z,28.33
2018-04-29T13:08:58.423Z,28.74
2018-04-29T13:12:01.723Z,28.51
2018-04-29T13:15:04.306Z,28.68
2018-04-29T13:18:06.929Z,28.77
2018-04-29T13:21:09.467Z,29.07
2018-04-29T13:24:12.012Z,28.73
2018-04-29T13:27:14.553Z,28.78
2018-04-29T13:30:17.118Z,28.95
2018-04-29T13:33:19.816Z,28.79
2018-04-29T13:36:22.335Z,28.72
2018-04-29T13:39:24.899Z,29.16
2018-04-29T13:42:27.424Z,29.14
2018-04-29T13:45:30.239Z,29.19
2018-04-29T13:48:32.813Z,28.91
2018-04-29T13:51:35.372Z,29.13
2018-04-29T13:54:38.048Z,28.87
2018-04-29T13:57:40.612Z,28.89
2018-04-29T14:00:43.115Z,28.65
2018-04-29T14:03:45.626Z,28.68
2018-04-29T14:06:48.173Z,28.74
2018-04-29T14:09:50.776Z,29.03
2018-04-29T14:12:53.332Z,28.86
2018-04-29T14:15:55.840Z,29.11
2018-04-29T14:18:58.418Z,28.50
2018-04-29T14:22:00.976Z,28.58
2018-04-29T14:25:03.525Z,28.36
2018-04-29T14:28:06.766Z,28.89
2018-04-29T14:31:09.403Z,28.71
2018-04-29T14:34:11.890Z,28.66
2018-04-29T14:37:14.412Z,28.51
2018-04-29T14:40:17.127Z,28.69
2018-04-29T14:43:19.771Z,28.50
2018-04-29T14:46:22.405Z,28.51
2018-04-29T14:49:25.015Z,28.42
2018-04-29T14:52:27.591Z,28.84
2018-04-29T14:55:30.186Z,28.58
2018-04-29T14:58:32.825Z,28.53
2018-04-29T15:01:35.472Z,28.23
2018-04-29T15:04:38.046Z,28.41
2018-04-29T15:07:40.678Z,28.32
2018-04-29T15:10:43.197Z,28.35
2018-04-29T15:13:45.774Z,28.10
2018-04-29T15:16:48.337Z,28.19
2018-04-29T15:19:50.874Z,28.20
2018-04-29T15:22:53.403Z,28.14
2018-04-29T15:25:55.972Z,28.07
2018-04-29T15:28:58.636Z,27.90
2018-04-29T15:32:01.185Z,27.56
2018-04-29T15:35:03.939Z,27.90
2018-04-29T15:38:06.516Z,27.94
2018-04-29T15:41:09.095Z,27.93
2018-04-29T15:44:11.632Z,27.66
2018-04-29T15:47:14.797Z,27.17
2018-04-29T15:50:17.385Z,27.31
2018-04-29T15:53:20.005Z,27.14
2018-04-29T15:56:22.591Z,27.14
2018-04-29T15:59:25.242Z,27.34
2018-04-29T16:02:27.782Z,27.16
2018-04-29T16:05:30.354Z,26.99
2018-04-29T16:08:32.893Z,27.15
2018-04-29T16:11:35.463Z,26.56
2018-04-29T16:14:38.035Z,26.53
2018-04-29T16:17:40.679Z,26.46
2018-04-29T16:20:43.376Z,26.45
2018-04-29T16:23:46.033Z,26.26
2018-04-29T16:26:48.634Z,26.34
2018-04-29T16:29:51.247Z,26.18
2018-04-29T16:32:53.970Z,25.96
2018-04-29T16:35:56.563Z,25.93
2018-04-29T16:39:00.247Z,25.67
2018-04-29T16:42:02.873Z,25.93
2018-04-29T16:45:05.494Z,25.93
2018-04-29T16:48:08.145Z,25.63
2018-04-29T16:51:10.715Z,25.48
2018-04-29T16:54:13.343Z,25.48
2018-04-29T16:57:15.901Z,25.38
2018-04-29T17:00:18.453Z,25.14
2018-04-29T17:03:21.092Z,24.99
2018-04-29T17:06:23.675Z,25.01
2018-04-29T17:09:26.359Z,25.04
2018-04-29T17:12:28.903Z,24.87
2018-04-29T17:15:31.551Z,24.69
2018-04-29T17:18:34.258Z,24.67
2018-04-29T17:21:36.959Z,24.66
2018-04-29T17:24:39.539Z,24.68
2018-04-29T17:27:42.116Z,24.46
2018-04-29T17:30:44.742Z,24.30
2018-04-29T17:33:47.360Z,24.27
2018-04-29T17:36:50.046Z,24.29
2018-04-29T17:39:52.821Z,24.07
2018-04-29T17:42:55.528Z,24.03
2018-04-29T17:45:58.131Z,23.84
2018-04-29T17:49:00.782Z,23.92
2018-04-29T17:52:03.386Z,23.82
2018-04-29T17:55:05.950Z,23.57
2018-04-29T17:58:08.638Z,23.47
2018-04-29T18:01:11.392Z,23.31
2018-04-29T18:04:14.088Z,23.06
2018-04-29T18:07:16.844Z,22.95
2018-04-29T18:10:19.418Z,22.60
2018-04-29T18:13:22.087Z,22.54
2018-04-29T18:16:24.777Z,22.64
2018-04-29T18:19:27.366Z,22.49
2018-04-29T18:22:29.998Z,22.26
2018-04-29T18:25:32.640Z,22.01
2018-04-29T18:28:35.322Z,22.00
2018-04-29T18:31:37.977Z,21.99
2018-04-29T18:34:40.632Z,21.76
2018-04-29T18:37:43.163Z,21.94
2018-04-29T18:40:46.813Z,21.74
2018-04-29T18:43:49.395Z,21.64
2018-04-29T18:46:51.976Z,21.88
2018-04-29T18:49:54.612Z,21.68
2018-04-29T18:52:57.397Z,21.47
2018-04-29T18:56:00.113Z,21.73
2018-04-29T18:59:02.735Z,21.64
2018-04-29T19:02:05.414Z,21.75
2018-04-29T19:05:08.129Z,21.69
2018-04-29T19:08:11.212Z,21.87
2018-04-29T19:11:15.028Z,21.69
2018-04-29T19:14:17.797Z,21.82
2018-04-29T19:17:20.473Z,21.81
2018-04-29T19:20:23.133Z,21.85
2018-04-29T19:23:25.815Z,21.59
2018-04-29T19:26:28.573Z,21.71
2018-04-29T19:29:31.685Z,21.63
2018-04-29T19:32:34.895Z,21.45
2018-04-29T19:35:37.566Z,21.28
2018-04-29T19:38:40.335Z,21.32
2018-04-29T19:41:43.142Z,21.38
2018-04-29T19:44:46.038Z,21.37
2018-04-29T19:47:48.689Z,21.04
2018-04-29T19:50:51.412Z,21.25
2018-04-29T19:53:53.993Z,20.93
2018-04-29T19:56:56.614Z,20.95
2018-04-29T19:59:59.209Z,20.69
2018-04-29T20:03:01.801Z,20.76
2018-04-29T20:06:04.426Z,20.76
2018-04-29T20:09:07.366Z,20.69
2018-04-29T20:12:10.032Z,20.43
2018-04-29T20:15:12.711Z,20.19
2018-04-29T20:18:15.302Z,20.16
2018-04-29T20:21:17.921Z,20.21
2018-04-29T20:24:20.461Z,19.96
2018-04-29T20:27:23.024Z,20.11
2018-04-29T20:30:25.675Z,19.57
2018-04-29T20:33:28.272Z,19.74
2018-04-29T20:36:30.867Z,19.92
2018-04-29T20:39:33.539Z,19.50
2018-04-29T20:42:36.116Z,19.66
2018-04-29T20:45:38.973Z,19.52
2018-04-29T20:48:41.576Z,19.83
2018-04-29T20:51:44.135Z,19.57
2018-04-29T20:54:46.656Z,19.69
2018-04-29T20:57:49.198Z,19.64
2018-04-29T21:00:51.718Z,19.50
2018-04-29T21:03:54.308Z,19.29
2018-04-29T21:06:56.863Z,19.40
2018-04-29T21:09:59.444Z,19.22
2018-04-29T21:13:02.113Z,19.50
2018-04-29T21:16:04.649Z,19.55
2018-04-29T21:19:07.171Z,19.32
2018-04-29T21:22:09.722Z,19.42
2018-04-29T21:25:12.229Z,19.52
2018-04-29T21:28:14.766Z,19.21
2018-04-29T21:31:18.426Z,19.29
2018-04-29T21:34:21.109Z,19.09
2018-04-29T21:37:23.617Z,19.25
2018-04-29T21:40:26.169Z,19.29
2018-04-29T21:43:28.695Z,19.22
2018-04-29T21:46:31.248Z,19.12
2018-04-29T21:49:33.794Z,19.25
2018-04-29T21:52:36.418Z,19.29
2018-04-29T21:55:38.939Z,19.23
2018-04-29T21:58:41.528Z,19.15
2018-04-29T22:01:44.031Z,19.27
2018-04-29T22:04:46.583Z,19.32
2018-04-29T22:07:49.147Z,19.12
2018-04-29T22:10:51.683Z,19.18
2018-04-29T22:13:54.244Z,19.09
2018-04-29T22:16:56.768Z,19.02
2018-04-29T22:19:59.265Z,18.85
2018-04-29T22:23:01.806Z,19.04
2018-04-29T22:26:04.329Z,19.14
2018-04-29T22:29:06.872Z,19.00
2018-04-29T22:32:09.390Z,19.05
2018-04-29T22:35:11.891Z,18.94
2018-04-29T22:38:14.425Z,18.83
2018-04-29T22:41:16.945Z,18.82
2018-04-29T22:44:19.438Z,18.92
2018-04-29T22:47:21.977Z,18.68
2018-04-29T22:50:24.463Z,18.60
2018-04-29T22:53:27.003Z,18.58
2018-04-29T22:56:29.529Z,18.37
2018-04-29T22:59:31.997Z,18.54
2018-04-29T23:02:34.540Z,18.43
2018-04-29T23:05:37.175Z,18.54
2018-04-29T23:08:39.652Z,18.42
2018-04-29T23:11:42.207Z,18.21
2018-04-29T23:14:45.822Z,18.32
2018-04-29T23:17:48.345Z,18.36
2018-04-29T23:20:52.069Z,18.13
2018-04-29T23:23:54.600Z,18.23
2018-04-29T23:26:57.100Z,18.11
2018-04-29T23:29:59.633Z,17.93
2018-04-29T23:33:02.115Z,17.81
2018-04-29T23:36:04.692Z,17.83
2018-04-29T23:39:07.195Z,17.65
2018-04-29T23:42:09.711Z,17.81
2018-04-29T23:45:12.234Z,17.51
2018-04-29T23:48:14.768Z,17.73
2018-04-29T23:51:17.262Z,17.61
2018-04-29T23:54:19.784Z,17.60
2018-04-29T23:57:22.289Z,17.41
